sensor_id;sensor_type;location;lat;lon;timestamp;P1;durP1;ratioP1;P2;durP2;ratioP2
72715;SDS011;60830;64.560;40.542;2022-11-15T00:01:48;1.77;;;1.67;;
72715;SDS011;60830;64.560;40.542;2022-11-15T00:04:33;2.72;;;2.00;;
72715;SDS011;60830;64.560;40.542;2022-11-15T00:07:17;6.45;;;2.22;;
72715;SDS011;60830;64.560;40.542;2022-11-15T00:10:03;2.67;;;1.55;;
72715;SDS011;60830;64.560;40.542;2022-11-15T00:12:47;4.78;;;2.30;;
72715;SDS011;60830;64.560;40.542;2022-11-15T00:15:34;5.63;;;2.45;;
72715;SDS011;60830;64.560;40.542;2022-11-15T00:18:18;5.57;;;3.30;;
72715;SDS011;60830;64.560;40.542;2022-11-15T00:21:04;5.70;;;2.90;;
72715;SDS011;60830;64.560;40.542;2022-11-15T00:23:50;6.43;;;3.65;;
72715;SDS011;60830;64.560;40.542;2022-11-15T00:26:35;4.72;;;3.70;;
72715;SDS011;60830;64.560;40.542;2022-11-15T00:29:19;7.22;;;4.90;;
72715;SDS011;60830;64.560;40.542;2022-11-15T00:32:04;7.80;;;6.15;;
72715;SDS011;60830;64.560;40.542;2022-11-15T00:34:49;8.30;;;5.60;;
72715;SDS011;60830;64.560;40.542;2022-11-15T00:37:33;12.80;;;6.88;;
72715;SDS011;60830;64.560;40.542;2022-11-15T00:40:18;7.72;;;6.65;;
72715;SDS011;60830;64.560;40.542;2022-11-15T00:43:03;8.98;;;6.13;;
72715;SDS011;60830;64.560;40.542;2022-11-15T00:45:47;8.10;;;6.15;;
72715;SDS011;60830;64.560;40.542;2022-11-15T00:48:32;6.28;;;5.68;;
72715;SDS011;60830;64.560;40.542;2022-11-15T00:51:17;7.60;;;6.30;;
72715;SDS011;60830;64.560;40.542;2022-11-15T00:54:01;8.65;;;6.82;;
72715;SDS011;60830;64.560;40.542;2022-11-15T00:56:46;8.48;;;5.88;;
72715;SDS011;60830;64.560;40.542;2022-11-15T01:02:15;9.10;;;5.65;;
72715;SDS011;60830;64.560;40.542;2022-11-15T01:05:00;9.70;;;7.38;;
72715;SDS011;60830;64.560;40.542;2022-11-15T01:07:45;10.95;;;7.18;;
72715;SDS011;60830;64.560;40.542;2022-11-15T01:10:29;15.45;;;8.23;;
72715;SDS011;60830;64.560;40.542;2022-11-15T01:13:14;13.80;;;7.95;;
72715;SDS011;60830;64.560;40.542;2022-11-15T01:15:59;15.50;;;9.27;;
72715;SDS011;60830;64.560;40.542;2022-11-15T01:21:28;18.67;;;11.95;;
72715;SDS011;60830;64.560;40.542;2022-11-15T01:24:12;11.82;;;9.00;;
72715;SDS011;60830;64.560;40.542;2022-11-15T01:26:57;17.77;;;8.52;;
72715;SDS011;60830;64.560;40.542;2022-11-15T01:29:41;12.27;;;7.60;;
72715;SDS011;60830;64.560;40.542;2022-11-15T01:32:26;6.30;;;3.75;;
72715;SDS011;60830;64.560;40.542;2022-11-15T01:35:11;11.15;;;6.35;;
72715;SDS011;60830;64.560;40.542;2022-11-15T01:37:55;8.38;;;5.93;;
72715;SDS011;60830;64.560;40.542;2022-11-15T01:40:40;10.60;;;6.10;;
72715;SDS011;60830;64.560;40.542;2022-11-15T01:43:26;9.77;;;6.10;;
72715;SDS011;60830;64.560;40.542;2022-11-15T01:49:03;6.72;;;4.78;;
72715;SDS011;60830;64.560;40.542;2022-11-15T01:51:50;7.07;;;4.75;;
72715;SDS011;60830;64.560;40.542;2022-11-15T01:57:19;10.43;;;6.40;;
72715;SDS011;60830;64.560;40.542;2022-11-15T02:00:04;11.18;;;7.00;;
72715;SDS011;60830;64.560;40.542;2022-11-15T02:02:49;10.13;;;7.32;;
72715;SDS011;60830;64.560;40.542;2022-11-15T02:05:35;9.95;;;5.75;;
72715;SDS011;60830;64.560;40.542;2022-11-15T02:08:20;6.50;;;4.70;;
72715;SDS011;60830;64.560;40.542;2022-11-15T02:11:08;8.07;;;5.35;;
72715;SDS011;60830;64.560;40.542;2022-11-15T02:13:52;9.10;;;5.97;;
72715;SDS011;60830;64.560;40.542;2022-11-15T02:22:28;6.65;;;5.00;;
72715;SDS011;60830;64.560;40.542;2022-11-15T02:31:10;11.25;;;5.82;;
72715;SDS011;60830;64.560;40.542;2022-11-15T02:40:19;9.95;;;5.80;;
72715;SDS011;60830;64.560;40.542;2022-11-15T02:43:08;15.85;;;7.00;;
72715;SDS011;60830;64.560;40.542;2022-11-15T02:46:20;6.97;;;5.70;;
72715;SDS011;60830;64.560;40.542;2022-11-15T02:49:06;6.43;;;5.28;;
72715;SDS011;60830;64.560;40.542;2022-11-15T02:51:50;10.85;;;7.63;;
72715;SDS011;60830;64.560;40.542;2022-11-15T02:54:35;9.85;;;7.57;;
72715;SDS011;60830;64.560;40.542;2022-11-15T02:57:22;12.25;;;8.32;;
72715;SDS011;60830;64.560;40.542;2022-11-15T03:00:15;7.25;;;5.95;;
72715;SDS011;60830;64.560;40.542;2022-11-15T03:08:54;12.82;;;8.20;;
72715;SDS011;60830;64.560;40.542;2022-11-15T03:11:43;12.50;;;9.73;;
72715;SDS011;60830;64.560;40.542;2022-11-15T03:14:30;19.25;;;11.27;;
72715;SDS011;60830;64.560;40.542;2022-11-15T03:20:05;23.05;;;13.40;;
72715;SDS011;60830;64.560;40.542;2022-11-15T03:22:50;15.20;;;9.55;;
72715;SDS011;60830;64.560;40.542;2022-11-15T03:25:38;14.40;;;7.20;;
72715;SDS011;60830;64.560;40.542;2022-11-15T03:28:26;17.67;;;9.80;;
72715;SDS011;60830;64.560;40.542;2022-11-15T03:31:12;23.92;;;12.95;;
72715;SDS011;60830;64.560;40.542;2022-11-15T03:37:13;11.13;;;5.78;;
72715;SDS011;60830;64.560;40.542;2022-11-15T03:39:58;13.00;;;7.82;;
72715;SDS011;60830;64.560;40.542;2022-11-15T03:42:46;10.23;;;4.53;;
72715;SDS011;60830;64.560;40.542;2022-11-15T03:45:33;11.18;;;7.50;;
72715;SDS011;60830;64.560;40.542;2022-11-15T03:48:21;8.10;;;5.25;;
72715;SDS011;60830;64.560;40.542;2022-11-15T03:51:07;14.35;;;7.30;;
72715;SDS011;60830;64.560;40.542;2022-11-15T03:53:52;15.40;;;8.68;;
72715;SDS011;60830;64.560;40.542;2022-11-15T03:56:36;6.72;;;4.22;;
72715;SDS011;60830;64.560;40.542;2022-11-15T03:59:21;10.80;;;7.18;;
72715;SDS011;60830;64.560;40.542;2022-11-15T04:02:06;10.30;;;5.88;;
72715;SDS011;60830;64.560;40.542;2022-11-15T04:04:50;8.38;;;4.18;;
72715;SDS011;60830;64.560;40.542;2022-11-15T04:07:35;13.40;;;7.30;;
72715;SDS011;60830;64.560;40.542;2022-11-15T04:10:20;9.82;;;5.35;;
72715;SDS011;60830;64.560;40.542;2022-11-15T04:13:04;11.70;;;6.00;;
72715;SDS011;60830;64.560;40.542;2022-11-15T04:15:49;7.70;;;4.63;;
72715;SDS011;60830;64.560;40.542;2022-11-15T04:18:33;5.85;;;3.47;;
72715;SDS011;60830;64.560;40.542;2022-11-15T04:21:18;3.92;;;2.78;;
72715;SDS011;60830;64.560;40.542;2022-11-15T04:24:21;8.05;;;4.63;;
72715;SDS011;60830;64.560;40.542;2022-11-15T04:27:06;7.63;;;4.53;;
72715;SDS011;60830;64.560;40.542;2022-11-15T04:29:51;8.30;;;5.63;;
72715;SDS011;60830;64.560;40.542;2022-11-15T04:32:35;11.50;;;6.95;;
72715;SDS011;60830;64.560;40.542;2022-11-15T04:35:20;10.63;;;6.65;;
72715;SDS011;60830;64.560;40.542;2022-11-15T04:38:05;10.38;;;7.97;;
72715;SDS011;60830;64.560;40.542;2022-11-15T04:40:50;16.13;;;8.95;;
72715;SDS011;60830;64.560;40.542;2022-11-15T04:43:34;7.90;;;5.80;;
72715;SDS011;60830;64.560;40.542;2022-11-15T04:46:19;10.85;;;7.43;;
72715;SDS011;60830;64.560;40.542;2022-11-15T04:49:04;13.07;;;6.63;;
72715;SDS011;60830;64.560;40.542;2022-11-15T04:51:48;13.73;;;5.68;;
72715;SDS011;60830;64.560;40.542;2022-11-15T04:54:33;7.85;;;6.47;;
72715;SDS011;60830;64.560;40.542;2022-11-15T04:57:18;18.55;;;10.52;;
72715;SDS011;60830;64.560;40.542;2022-11-15T05:00:04;23.70;;;13.20;;
72715;SDS011;60830;64.560;40.542;2022-11-15T05:02:48;30.60;;;16.63;;
72715;SDS011;60830;64.560;40.542;2022-11-15T05:05:52;34.40;;;18.70;;
72715;SDS011;60830;64.560;40.542;2022-11-15T05:08:36;33.35;;;17.52;;
72715;SDS011;60830;64.560;40.542;2022-11-15T05:11:21;24.75;;;14.38;;
72715;SDS011;60830;64.560;40.542;2022-11-15T05:14:06;16.40;;;9.55;;
72715;SDS011;60830;64.560;40.542;2022-11-15T05:16:50;12.93;;;6.75;;
72715;SDS011;60830;64.560;40.542;2022-11-15T05:19:35;19.30;;;6.85;;
72715;SDS011;60830;64.560;40.542;2022-11-15T05:22:19;8.90;;;5.60;;
72715;SDS011;60830;64.560;40.542;2022-11-15T05:25:04;7.57;;;4.60;;
72715;SDS011;60830;64.560;40.542;2022-11-15T05:27:49;15.05;;;7.78;;
72715;SDS011;60830;64.560;40.542;2022-11-15T05:30:33;8.18;;;5.05;;
72715;SDS011;60830;64.560;40.542;2022-11-15T05:33:18;9.68;;;5.32;;
72715;SDS011;60830;64.560;40.542;2022-11-15T05:38:47;16.27;;;7.90;;
72715;SDS011;60830;64.560;40.542;2022-11-15T05:41:36;12.27;;;7.03;;
72715;SDS011;60830;64.560;40.542;2022-11-15T05:44:22;8.10;;;5.60;;
72715;SDS011;60830;64.560;40.542;2022-11-15T05:47:08;9.23;;;4.78;;
72715;SDS011;60830;64.560;40.542;2022-11-15T05:49:53;8.85;;;5.80;;
72715;SDS011;60830;64.560;40.542;2022-11-15T05:55:22;19.63;;;7.88;;
72715;SDS011;60830;64.560;40.542;2022-11-15T05:58:07;6.65;;;4.30;;
72715;SDS011;60830;64.560;40.542;2022-11-15T06:00:51;19.20;;;10.73;;
72715;SDS011;60830;64.560;40.542;2022-11-15T06:03:36;20.42;;;9.65;;
72715;SDS011;60830;64.560;40.542;2022-11-15T06:06:21;11.60;;;5.78;;
72715;SDS011;60830;64.560;40.542;2022-11-15T06:09:05;15.40;;;7.72;;
72715;SDS011;60830;64.560;40.542;2022-11-15T06:11:50;12.10;;;7.07;;
72715;SDS011;60830;64.560;40.542;2022-11-15T06:14:35;9.60;;;5.53;;
72715;SDS011;60830;64.560;40.542;2022-11-15T06:17:19;13.20;;;5.72;;
72715;SDS011;60830;64.560;40.542;2022-11-15T06:20:04;17.20;;;8.27;;
72715;SDS011;60830;64.560;40.542;2022-11-15T06:22:49;10.23;;;4.47;;
72715;SDS011;60830;64.560;40.542;2022-11-15T06:25:34;5.22;;;4.22;;
72715;SDS011;60830;64.560;40.542;2022-11-15T06:28:18;18.65;;;9.68;;
72715;SDS011;60830;64.560;40.542;2022-11-15T06:31:06;18.60;;;9.70;;
72715;SDS011;60830;64.560;40.542;2022-11-15T06:33:51;16.15;;;10.27;;
72715;SDS011;60830;64.560;40.542;2022-11-15T06:36:36;21.50;;;12.13;;
72715;SDS011;60830;64.560;40.542;2022-11-15T06:39:20;15.98;;;8.65;;
72715;SDS011;60830;64.560;40.542;2022-11-15T06:42:05;17.05;;;8.02;;
72715;SDS011;60830;64.560;40.542;2022-11-15T06:44:50;18.75;;;11.73;;
72715;SDS011;60830;64.560;40.542;2022-11-15T06:47:34;13.40;;;6.22;;
72715;SDS011;60830;64.560;40.542;2022-11-15T06:50:19;5.30;;;3.78;;
72715;SDS011;60830;64.560;40.542;2022-11-15T06:53:04;8.55;;;4.72;;
72715;SDS011;60830;64.560;40.542;2022-11-15T06:55:48;8.15;;;4.03;;
72715;SDS011;60830;64.560;40.542;2022-11-15T06:58:33;4.75;;;3.10;;
72715;SDS011;60830;64.560;40.542;2022-11-15T07:01:18;6.50;;;3.20;;
72715;SDS011;60830;64.560;40.542;2022-11-15T07:04:03;12.60;;;6.57;;
72715;SDS011;60830;64.560;40.542;2022-11-15T07:06:48;7.90;;;4.47;;
72715;SDS011;60830;64.560;40.542;2022-11-15T07:09:33;8.82;;;5.80;;
72715;SDS011;60830;64.560;40.542;2022-11-15T07:12:17;10.90;;;6.63;;
72715;SDS011;60830;64.560;40.542;2022-11-15T07:15:02;3.65;;;3.28;;
72715;SDS011;60830;64.560;40.542;2022-11-15T07:17:46;6.75;;;4.50;;
72715;SDS011;60830;64.560;40.542;2022-11-15T07:20:31;14.23;;;8.07;;
72715;SDS011;60830;64.560;40.542;2022-11-15T07:23:16;12.98;;;7.55;;
72715;SDS011;60830;64.560;40.542;2022-11-15T07:26:00;9.07;;;7.72;;
72715;SDS011;60830;64.560;40.542;2022-11-15T07:28:45;9.82;;;5.20;;
72715;SDS011;60830;64.560;40.542;2022-11-15T07:31:30;7.30;;;5.32;;
72715;SDS011;60830;64.560;40.542;2022-11-15T07:34:15;8.98;;;5.68;;
72715;SDS011;60830;64.560;40.542;2022-11-15T07:36:59;9.73;;;7.28;;
72715;SDS011;60830;64.560;40.542;2022-11-15T07:39:43;16.05;;;8.27;;
72715;SDS011;60830;64.560;40.542;2022-11-15T07:42:30;8.32;;;6.32;;
72715;SDS011;60830;64.560;40.542;2022-11-15T07:45:34;20.85;;;9.98;;
72715;SDS011;60830;64.560;40.542;2022-11-15T07:48:24;10.13;;;6.60;;
72715;SDS011;60830;64.560;40.542;2022-11-15T07:51:15;16.63;;;8.80;;
72715;SDS011;60830;64.560;40.542;2022-11-15T07:54:00;20.60;;;11.82;;
72715;SDS011;60830;64.560;40.542;2022-11-15T07:56:45;10.75;;;5.57;;
72715;SDS011;60830;64.560;40.542;2022-11-15T07:59:29;26.33;;;14.10;;
72715;SDS011;60830;64.560;40.542;2022-11-15T08:02:14;19.77;;;12.25;;
72715;SDS011;60830;64.560;40.542;2022-11-15T08:05:01;21.05;;;11.15;;
72715;SDS011;60830;64.560;40.542;2022-11-15T08:07:46;16.70;;;5.82;;
72715;SDS011;60830;64.560;40.542;2022-11-15T08:10:31;20.05;;;8.38;;
72715;SDS011;60830;64.560;40.542;2022-11-15T08:13:16;26.90;;;13.65;;
72715;SDS011;60830;64.560;40.542;2022-11-15T08:16:01;20.92;;;11.20;;
72715;SDS011;60830;64.560;40.542;2022-11-15T08:21:30;30.25;;;17.15;;
72715;SDS011;60830;64.560;40.542;2022-11-15T08:24:15;27.13;;;18.42;;
72715;SDS011;60830;64.560;40.542;2022-11-15T08:26:59;30.90;;;19.73;;
72715;SDS011;60830;64.560;40.542;2022-11-15T08:29:44;12.13;;;7.50;;
72715;SDS011;60830;64.560;40.542;2022-11-15T08:32:28;13.77;;;9.82;;
72715;SDS011;60830;64.560;40.542;2022-11-15T08:35:14;15.25;;;9.60;;
72715;SDS011;60830;64.560;40.542;2022-11-15T08:37:59;14.23;;;10.38;;
72715;SDS011;60830;64.560;40.542;2022-11-15T08:40:43;14.50;;;9.60;;
72715;SDS011;60830;64.560;40.542;2022-11-15T08:43:28;12.60;;;8.82;;
72715;SDS011;60830;64.560;40.542;2022-11-15T08:46:12;9.05;;;6.30;;
72715;SDS011;60830;64.560;40.542;2022-11-15T08:48:57;9.50;;;6.13;;
72715;SDS011;60830;64.560;40.542;2022-11-15T08:51:41;11.55;;;6.57;;
72715;SDS011;60830;64.560;40.542;2022-11-15T08:54:26;8.90;;;6.47;;
72715;SDS011;60830;64.560;40.542;2022-11-15T08:57:11;8.88;;;6.25;;
72715;SDS011;60830;64.560;40.542;2022-11-15T08:59:55;7.00;;;4.50;;
72715;SDS011;60830;64.560;40.542;2022-11-15T09:02:40;10.13;;;6.45;;
72715;SDS011;60830;64.560;40.542;2022-11-15T09:05:25;9.43;;;5.68;;
72715;SDS011;60830;64.560;40.542;2022-11-15T09:08:09;8.68;;;5.60;;
72715;SDS011;60830;64.560;40.542;2022-11-15T09:10:55;5.63;;;3.50;;
72715;SDS011;60830;64.560;40.542;2022-11-15T09:13:39;5.13;;;4.15;;
72715;SDS011;60830;64.560;40.542;2022-11-15T09:16:24;5.22;;;4.13;;
72715;SDS011;60830;64.560;40.542;2022-11-15T09:19:08;9.07;;;4.38;;
72715;SDS011;60830;64.560;40.542;2022-11-15T09:21:53;8.80;;;4.20;;
72715;SDS011;60830;64.560;40.542;2022-11-15T09:27:22;7.45;;;4.80;;
72715;SDS011;60830;64.560;40.542;2022-11-15T09:30:07;7.78;;;5.35;;
72715;SDS011;60830;64.560;40.542;2022-11-15T09:32:51;6.18;;;3.78;;
72715;SDS011;60830;64.560;40.542;2022-11-15T09:35:36;6.30;;;3.78;;
72715;SDS011;60830;64.560;40.542;2022-11-15T09:38:21;16.75;;;5.95;;
72715;SDS011;60830;64.560;40.542;2022-11-15T09:41:26;10.52;;;5.40;;
72715;SDS011;60830;64.560;40.542;2022-11-15T09:49:56;15.20;;;8.55;;
72715;SDS011;60830;64.560;40.542;2022-11-15T09:52:29;8.50;;;6.18;;
72715;SDS011;60830;64.560;40.542;2022-11-15T09:54:55;15.13;;;8.07;;
72715;SDS011;60830;64.560;40.542;2022-11-15T10:05:16;14.48;;;9.40;;
72715;SDS011;60830;64.560;40.542;2022-11-15T10:07:54;14.27;;;9.77;;
72715;SDS011;60830;64.560;40.542;2022-11-15T10:10:25;14.65;;;7.15;;
72715;SDS011;60830;64.560;40.542;2022-11-15T10:12:53;12.35;;;8.38;;
72715;SDS011;60830;64.560;40.542;2022-11-15T10:15:19;21.10;;;9.45;;
72715;SDS011;60830;64.560;40.542;2022-11-15T10:20:25;24.30;;;11.52;;
72715;SDS011;60830;64.560;40.542;2022-11-15T10:25:26;26.20;;;12.65;;
72715;SDS011;60830;64.560;40.542;2022-11-15T10:27:56;15.37;;;9.00;;
72715;SDS011;60830;64.560;40.542;2022-11-15T10:30:23;17.15;;;10.13;;
72715;SDS011;60830;64.560;40.542;2022-11-15T10:32:49;15.10;;;9.00;;
72715;SDS011;60830;64.560;40.542;2022-11-15T10:35:26;19.20;;;9.15;;
72715;SDS011;60830;64.560;40.542;2022-11-15T10:38:04;6.30;;;4.82;;
72715;SDS011;60830;64.560;40.542;2022-11-15T10:40:30;15.63;;;9.40;;
72715;SDS011;60830;64.560;40.542;2022-11-15T10:43:15;20.67;;;11.80;;
72715;SDS011;60830;64.560;40.542;2022-11-15T10:45:42;10.35;;;6.40;;
72715;SDS011;60830;64.560;40.542;2022-11-15T10:50:38;13.70;;;7.70;;
72715;SDS011;60830;64.560;40.542;2022-11-15T10:53:10;13.90;;;8.80;;
72715;SDS011;60830;64.560;40.542;2022-11-15T10:55:37;15.80;;;8.15;;
72715;SDS011;60830;64.560;40.542;2022-11-15T10:58:05;15.82;;;9.23;;
72715;SDS011;60830;64.560;40.542;2022-11-15T11:00:32;17.27;;;8.93;;
72715;SDS011;60830;64.560;40.542;2022-11-15T11:03:02;9.40;;;6.00;;
72715;SDS011;60830;64.560;40.542;2022-11-15T11:05:32;17.00;;;10.38;;
72715;SDS011;60830;64.560;40.542;2022-11-15T11:08:00;15.52;;;9.82;;
72715;SDS011;60830;64.560;40.542;2022-11-15T11:10:27;17.98;;;8.55;;
72715;SDS011;60830;64.560;40.542;2022-11-15T11:12:53;11.00;;;6.25;;
72715;SDS011;60830;64.560;40.542;2022-11-15T11:15:19;10.75;;;4.78;;
72715;SDS011;60830;64.560;40.542;2022-11-15T11:20:49;9.32;;;5.57;;
72715;SDS011;60830;64.560;40.542;2022-11-15T11:34:15;16.70;;;7.80;;
72715;SDS011;60830;64.560;40.542;2022-11-15T11:36:46;15.63;;;9.30;;
72715;SDS011;60830;64.560;40.542;2022-11-15T11:41:49;13.68;;;8.82;;
72715;SDS011;60830;64.560;40.542;2022-11-15T11:47:11;12.50;;;7.80;;
72715;SDS011;60830;64.560;40.542;2022-11-15T11:52:18;18.05;;;9.95;;
72715;SDS011;60830;64.560;40.542;2022-11-15T11:58:14;18.98;;;9.75;;
72715;SDS011;60830;64.560;40.542;2022-11-15T12:00:20;22.13;;;13.23;;
72715;SDS011;60830;64.560;40.542;2022-11-15T12:02:48;14.40;;;8.55;;
72715;SDS011;60830;64.560;40.542;2022-11-15T12:05:18;16.88;;;11.75;;
72715;SDS011;60830;64.560;40.542;2022-11-15T12:07:46;20.00;;;12.25;;
72715;SDS011;60830;64.560;40.542;2022-11-15T12:10:32;15.88;;;9.00;;
72715;SDS011;60830;64.560;40.542;2022-11-15T12:13:04;17.63;;;10.55;;
72715;SDS011;60830;64.560;40.542;2022-11-15T12:15:32;21.23;;;12.77;;
72715;SDS011;60830;64.560;40.542;2022-11-15T12:17:59;21.60;;;11.88;;
72715;SDS011;60830;64.560;40.542;2022-11-15T12:20:30;18.52;;;12.25;;
72715;SDS011;60830;64.560;40.542;2022-11-15T12:23:06;19.60;;;12.90;;
72715;SDS011;60830;64.560;40.542;2022-11-15T12:30:43;21.88;;;13.27;;
72715;SDS011;60830;64.560;40.542;2022-11-15T12:33:28;20.10;;;12.05;;
72715;SDS011;60830;64.560;40.542;2022-11-15T12:36:00;19.20;;;11.68;;
72715;SDS011;60830;64.560;40.542;2022-11-15T12:41:13;18.42;;;10.00;;
72715;SDS011;60830;64.560;40.542;2022-11-15T12:43:40;17.45;;;9.73;;
72715;SDS011;60830;64.560;40.542;2022-11-15T12:46:10;14.23;;;8.65;;
72715;SDS011;60830;64.560;40.542;2022-11-15T12:51:03;10.18;;;6.50;;
72715;SDS011;60830;64.560;40.542;2022-11-15T12:53:30;10.25;;;7.18;;
72715;SDS011;60830;64.560;40.542;2022-11-15T13:04:21;12.93;;;8.73;;
72715;SDS011;60830;64.560;40.542;2022-11-15T13:06:58;15.90;;;8.68;;
72715;SDS011;60830;64.560;40.542;2022-11-15T13:11:59;16.88;;;10.23;;
72715;SDS011;60830;64.560;40.542;2022-11-15T13:19:47;16.10;;;11.30;;
72715;SDS011;60830;64.560;40.542;2022-11-15T13:22:14;12.73;;;9.32;;
72715;SDS011;60830;64.560;40.542;2022-11-15T13:25:01;16.92;;;10.13;;
72715;SDS011;60830;64.560;40.542;2022-11-15T13:27:27;15.20;;;11.00;;
72715;SDS011;60830;64.560;40.542;2022-11-15T13:29:54;12.93;;;6.93;;
72715;SDS011;60830;64.560;40.542;2022-11-15T13:32:20;10.60;;;7.97;;
72715;SDS011;60830;64.560;40.542;2022-11-15T13:34:47;10.93;;;7.13;;
72715;SDS011;60830;64.560;40.542;2022-11-15T13:39:46;13.45;;;9.57;;
72715;SDS011;60830;64.560;40.542;2022-11-15T13:42:15;15.60;;;10.43;;
72715;SDS011;60830;64.560;40.542;2022-11-15T13:44:54;14.93;;;9.45;;
72715;SDS011;60830;64.560;40.542;2022-11-15T13:47:21;12.80;;;9.93;;
72715;SDS011;60830;64.560;40.542;2022-11-15T13:49:47;13.40;;;9.18;;
72715;SDS011;60830;64.560;40.542;2022-11-15T13:52:14;14.98;;;8.48;;
72715;SDS011;60830;64.560;40.542;2022-11-15T14:00:22;15.95;;;10.65;;
72715;SDS011;60830;64.560;40.542;2022-11-15T14:02:50;19.30;;;11.48;;
72715;SDS011;60830;64.560;40.542;2022-11-15T14:05:17;18.17;;;10.88;;
72715;SDS011;60830;64.560;40.542;2022-11-15T14:07:57;21.80;;;13.00;;
72715;SDS011;60830;64.560;40.542;2022-11-15T14:10:28;20.98;;;14.13;;
72715;SDS011;60830;64.560;40.542;2022-11-15T14:12:54;18.35;;;12.65;;
72715;SDS011;60830;64.560;40.542;2022-11-15T14:17:58;26.42;;;16.30;;
72715;SDS011;60830;64.560;40.542;2022-11-15T14:20:38;23.90;;;15.60;;
72715;SDS011;60830;64.560;40.542;2022-11-15T14:23:24;19.15;;;12.82;;
72715;SDS011;60830;64.560;40.542;2022-11-15T14:25:54;21.85;;;14.43;;
72715;SDS011;60830;64.560;40.542;2022-11-15T14:30:46;14.63;;;9.52;;
72715;SDS011;60830;64.560;40.542;2022-11-15T14:33:29;20.83;;;11.77;;
72715;SDS011;60830;64.560;40.542;2022-11-15T14:35:56;15.80;;;10.27;;
72715;SDS011;60830;64.560;40.542;2022-11-15T14:38:23;18.52;;;11.13;;
72715;SDS011;60830;64.560;40.542;2022-11-15T14:40:49;14.38;;;10.23;;
72715;SDS011;60830;64.560;40.542;2022-11-15T14:43:16;13.80;;;8.32;;
72715;SDS011;60830;64.560;40.542;2022-11-15T14:45:42;19.48;;;12.55;;
72715;SDS011;60830;64.560;40.542;2022-11-15T14:48:08;14.45;;;10.50;;
72715;SDS011;60830;64.560;40.542;2022-11-15T14:50:37;17.13;;;9.52;;
72715;SDS011;60830;64.560;40.542;2022-11-15T14:53:04;12.27;;;7.93;;
72715;SDS011;60830;64.560;40.542;2022-11-15T14:55:31;13.68;;;10.00;;
72715;SDS011;60830;64.560;40.542;2022-11-15T14:57:59;13.48;;;8.50;;
72715;SDS011;60830;64.560;40.542;2022-11-15T15:00:28;14.63;;;9.68;;
72715;SDS011;60830;64.560;40.542;2022-11-15T15:02:54;10.98;;;7.07;;
72715;SDS011;60830;64.560;40.542;2022-11-15T15:05:22;11.70;;;7.55;;
72715;SDS011;60830;64.560;40.542;2022-11-15T15:07:49;13.80;;;8.20;;
72715;SDS011;60830;64.560;40.542;2022-11-15T15:10:16;13.52;;;8.13;;
72715;SDS011;60830;64.560;40.542;2022-11-15T15:12:42;12.48;;;7.93;;
72715;SDS011;60830;64.560;40.542;2022-11-15T15:15:12;9.77;;;7.38;;
72715;SDS011;60830;64.560;40.542;2022-11-15T15:17:39;10.85;;;7.60;;
72715;SDS011;60830;64.560;40.542;2022-11-15T15:20:05;14.10;;;8.65;;
72715;SDS011;60830;64.560;40.542;2022-11-15T15:22:31;13.55;;;9.43;;
72715;SDS011;60830;64.560;40.542;2022-11-15T15:24:57;14.13;;;7.70;;
72715;SDS011;60830;64.560;40.542;2022-11-15T15:27:23;10.35;;;6.70;;
72715;SDS011;60830;64.560;40.542;2022-11-15T15:29:49;10.68;;;7.07;;
72715;SDS011;60830;64.560;40.542;2022-11-15T15:32:15;9.60;;;6.30;;
72715;SDS011;60830;64.560;40.542;2022-11-15T15:34:42;10.27;;;7.47;;
72715;SDS011;60830;64.560;40.542;2022-11-15T15:39:40;9.98;;;7.10;;
72715;SDS011;60830;64.560;40.542;2022-11-15T15:42:06;11.43;;;5.90;;
72715;SDS011;60830;64.560;40.542;2022-11-15T15:44:32;11.18;;;6.78;;
72715;SDS011;60830;64.560;40.542;2022-11-15T15:46:58;10.07;;;6.30;;
72715;SDS011;60830;64.560;40.542;2022-11-15T15:49:24;9.77;;;6.78;;
72715;SDS011;60830;64.560;40.542;2022-11-15T15:51:50;8.45;;;6.07;;
72715;SDS011;60830;64.560;40.542;2022-11-15T15:54:16;5.47;;;3.83;;
72715;SDS011;60830;64.560;40.542;2022-11-15T15:56:42;5.93;;;4.45;;
72715;SDS011;60830;64.560;40.542;2022-11-15T15:59:09;12.45;;;6.03;;
72715;SDS011;60830;64.560;40.542;2022-11-15T16:01:35;9.40;;;4.40;;
72715;SDS011;60830;64.560;40.542;2022-11-15T16:04:01;9.82;;;6.43;;
72715;SDS011;60830;64.560;40.542;2022-11-15T16:06:37;9.48;;;6.38;;
72715;SDS011;60830;64.560;40.542;2022-11-15T16:09:04;14.30;;;7.38;;
72715;SDS011;60830;64.560;40.542;2022-11-15T16:11:31;10.43;;;6.53;;
72715;SDS011;60830;64.560;40.542;2022-11-15T16:13:57;8.38;;;5.25;;
72715;SDS011;60830;64.560;40.542;2022-11-15T16:16:23;10.93;;;6.03;;
72715;SDS011;60830;64.560;40.542;2022-11-15T16:18:49;11.32;;;5.50;;
72715;SDS011;60830;64.560;40.542;2022-11-15T16:21:16;10.60;;;5.38;;
72715;SDS011;60830;64.560;40.542;2022-11-15T16:23:42;9.15;;;4.78;;
72715;SDS011;60830;64.560;40.542;2022-11-15T16:26:20;9.80;;;4.85;;
72715;SDS011;60830;64.560;40.542;2022-11-15T16:28:46;12.95;;;4.72;;
72715;SDS011;60830;64.560;40.542;2022-11-15T16:31:13;10.93;;;5.43;;
72715;SDS011;60830;64.560;40.542;2022-11-15T16:33:39;6.78;;;3.53;;
72715;SDS011;60830;64.560;40.542;2022-11-15T16:36:10;6.00;;;3.88;;
72715;SDS011;60830;64.560;40.542;2022-11-15T16:38:38;8.68;;;4.35;;
72715;SDS011;60830;64.560;40.542;2022-11-15T16:41:04;5.97;;;3.97;;
72715;SDS011;60830;64.560;40.542;2022-11-15T16:43:30;5.50;;;4.25;;
72715;SDS011;60830;64.560;40.542;2022-11-15T16:45:56;6.22;;;4.05;;
72715;SDS011;60830;64.560;40.542;2022-11-15T16:48:23;5.45;;;3.88;;
72715;SDS011;60830;64.560;40.542;2022-11-15T16:50:50;4.88;;;3.80;;
72715;SDS011;60830;64.560;40.542;2022-11-15T16:53:16;7.30;;;4.53;;
72715;SDS011;60830;64.560;40.542;2022-11-15T16:55:42;8.13;;;5.20;;
72715;SDS011;60830;64.560;40.542;2022-11-15T16:58:08;7.70;;;5.45;;
72715;SDS011;60830;64.560;40.542;2022-11-15T17:00:35;8.07;;;6.10;;
72715;SDS011;60830;64.560;40.542;2022-11-15T17:03:01;7.85;;;4.95;;
72715;SDS011;60830;64.560;40.542;2022-11-15T17:05:28;8.02;;;4.97;;
72715;SDS011;60830;64.560;40.542;2022-11-15T17:07:54;7.65;;;5.05;;
72715;SDS011;60830;64.560;40.542;2022-11-15T17:10:24;7.22;;;4.60;;
72715;SDS011;60830;64.560;40.542;2022-11-15T17:12:50;5.57;;;3.92;;
72715;SDS011;60830;64.560;40.542;2022-11-15T17:15:17;4.07;;;3.60;;
72715;SDS011;60830;64.560;40.542;2022-11-15T17:17:43;4.30;;;3.40;;
72715;SDS011;60830;64.560;40.542;2022-11-15T17:20:13;5.03;;;3.10;;
72715;SDS011;60830;64.560;40.542;2022-11-15T17:22:39;4.63;;;3.58;;
72715;SDS011;60830;64.560;40.542;2022-11-15T17:25:05;4.97;;;3.75;;
72715;SDS011;60830;64.560;40.542;2022-11-15T17:27:31;5.88;;;3.78;;
72715;SDS011;60830;64.560;40.542;2022-11-15T17:29:57;4.75;;;3.25;;
72715;SDS011;60830;64.560;40.542;2022-11-15T17:32:24;3.78;;;2.80;;
72715;SDS011;60830;64.560;40.542;2022-11-15T17:34:50;4.97;;;3.33;;
72715;SDS011;60830;64.560;40.542;2022-11-15T17:37:16;5.30;;;3.78;;
72715;SDS011;60830;64.560;40.542;2022-11-15T17:39:42;5.50;;;2.47;;
72715;SDS011;60830;64.560;40.542;2022-11-15T17:42:08;5.70;;;2.70;;
72715;SDS011;60830;64.560;40.542;2022-11-15T17:44:34;4.30;;;3.03;;
72715;SDS011;60830;64.560;40.542;2022-11-15T17:47:00;4.90;;;3.08;;